createdAt,value
2022-07-31T04:02:42.780Z,100932.00
2022-07-31T04:05:11.343Z,100927.00
2022-07-31T04:07:39.485Z,100941.00
2022-07-31T04:10:09.253Z,100932.00
2022-07-31T04:12:37.545Z,100940.00
2022-07-31T04:15:06.875Z,100942.00
2022-07-31T04:17:35.232Z,100941.00
2022-07-31T04:20:05.920Z,100936.00
2022-07-31T04:22:34.547Z,100941.00
2022-07-31T04:25:03.616Z,100948.00
2022-07-31T04:27:31.751Z,100939.00
2022-07-31T04:29:59.872Z,100950.00
2022-07-31T04:32:28.001Z,100956.00
2022-07-31T04:34:56.274Z,100955.00
2022-07-31T04:37:26.745Z,100952.00
2022-07-31T04:39:54.868Z,100956.00
2022-07-31T04:42:23.199Z,100954.00
2022-07-31T04:44:51.966Z,100950.00
2022-07-31T04:47:22.314Z,100936.00
2022-07-31T04:49:50.878Z,100951.00
2022-07-31T04:52:40.124Z,100940.00
2022-07-31T04:55:09.694Z,100952.00
2022-07-31T04:57:37.839Z,100947.00
2022-07-31T05:00:08.576Z,100950.00
2022-07-31T05:02:36.738Z,100956.00
2022-07-31T05:05:05.786Z,100953.00
2022-07-31T05:07:35.345Z,100951.00
2022-07-31T05:10:03.490Z,100952.00
2022-07-31T05:12:31.583Z,100950.00
2022-07-31T05:14:59.688Z,100951.00
2022-07-31T05:17:27.803Z,100964.00
2022-07-31T05:19:55.807Z,100964.00
2022-07-31T05:22:23.847Z,100963.00
2022-07-31T05:24:53.224Z,100966.00
2022-07-31T05:27:21.296Z,100960.00
2022-07-31T05:29:49.443Z,100961.00
2022-07-31T05:32:17.907Z,100962.00
2022-07-31T05:34:46.155Z,100956.00
2022-07-31T05:37:14.250Z,100956.00
2022-07-31T05:39:42.315Z,100950.00
2022-07-31T05:42:12.073Z,100953.00
2022-07-31T05:44:40.117Z,100954.00
2022-07-31T05:47:08.835Z,100950.00
2022-07-31T05:49:37.113Z,100955.00
2022-07-31T05:52:06.596Z,100958.00
2022-07-31T05:54:34.906Z,100958.00
2022-07-31T05:57:02.978Z,100965.00
2022-07-31T05:59:34.707Z,100963.00
2022-07-31T06:02:03.087Z,100967.00
2022-07-31T06:04:31.340Z,100970.00
2022-07-31T06:06:59.402Z,100984.00
2022-07-31T06:09:27.508Z,100981.00
2022-07-31T06:11:55.596Z,100984.00
2022-07-31T06:14:23.705Z,100987.00
2022-07-31T06:16:53.160Z,100979.00
2022-07-31T06:19:24.340Z,100983.00
2022-07-31T06:21:54.046Z,100987.00
2022-07-31T06:24:22.297Z,100981.00
2022-07-31T06:26:50.425Z,100985.00
2022-07-31T06:29:18.716Z,100988.00
2022-07-31T06:31:53.324Z,100986.00
2022-07-31T06:34:21.569Z,100983.00
2022-07-31T06:36:49.636Z,100988.00
2022-07-31T06:39:17.980Z,100985.00
2022-07-31T06:41:47.302Z,100984.00
2022-07-31T06:44:16.963Z,100967.00
2022-07-31T06:46:49.055Z,100981.00
2022-07-31T06:49:19.463Z,100973.00
2022-07-31T06:51:47.605Z,100973.00
2022-07-31T06:54:16.009Z,100970.00
2022-07-31T06:56:44.260Z,100969.00
2022-07-31T06:59:12.555Z,100975.00
2022-07-31T07:01:40.700Z,100975.00
2022-07-31T07:04:09.215Z,100977.00
2022-07-31T07:06:38.633Z,100975.00
2022-07-31T07:09:06.801Z,100971.00
2022-07-31T07:11:34.973Z,100975.00
2022-07-31T07:14:03.027Z,100972.00
2022-07-31T07:16:31.118Z,100971.00
2022-07-31T07:18:59.197Z,100973.00
2022-07-31T07:21:27.277Z,100961.00
2022-07-31T07:23:56.664Z,100958.00
2022-07-31T07:26:24.952Z,100959.00
2022-07-31T07:28:53.000Z,100956.00
2022-07-31T07:31:21.137Z,100960.00
2022-07-31T07:33:51.461Z,100955.00
2022-07-31T07:36:22.384Z,100955.00
2022-07-31T07:38:55.018Z,100960.00
2022-07-31T07:41:25.767Z,100957.00
2022-07-31T07:43:54.566Z,100953.00
2022-07-31T07:46:23.477Z,100953.00
2022-07-31T07:48:52.407Z,100946.00
2022-07-31T07:51:21.254Z,100940.00
2022-07-31T07:53:50.135Z,100935.00
2022-07-31T07:56:18.652Z,100939.00
2022-07-31T07:58:49.594Z,100935.00
2022-07-31T08:01:18.102Z,100929.00
2022-07-31T08:03:49.254Z,100931.00
2022-07-31T08:06:21.019Z,100930.00
2022-07-31T08:08:49.271Z,100928.00
2022-07-31T08:11:18.059Z,100932.00
2022-07-31T08:13:51.066Z,100932.00
2022-07-31T08:16:20.697Z,100926.00
2022-07-31T08:18:49.587Z,100932.00
2022-07-31T08:21:17.740Z,100933.00
2022-07-31T08:23:45.909Z,100932.00
2022-07-31T08:26:14.612Z,100933.00
2022-07-31T08:28:50.076Z,100929.00
2022-07-31T08:31:20.804Z,100933.00
2022-07-31T08:33:48.834Z,100927.00
2022-07-31T08:36:16.987Z,100928.00
2022-07-31T08:38:45.116Z,100934.00
2022-07-31T08:41:15.344Z,100931.00
2022-07-31T08:43:59.868Z,100933.00
2022-07-31T08:46:36.950Z,100933.00
2022-07-31T08:49:07.775Z,100929.00
2022-07-31T08:51:50.530Z,100937.00
2022-07-31T08:54:21.698Z,100936.00
2022-07-31T08:56:52.482Z,100931.00
2022-07-31T08:59:22.006Z,100929.00
2022-07-31T09:01:53.060Z,100932.00
2022-07-31T09:04:21.249Z,100916.00
2022-07-31T09:06:49.514Z,100910.00
2022-07-31T09:09:18.862Z,100920.00
2022-07-31T09:11:53.807Z,100916.00
2022-07-31T09:14:30.633Z,100911.00
2022-07-31T09:17:00.214Z,100909.00
2022-07-31T09:19:51.823Z,100910.00
2022-07-31T09:22:23.613Z,100903.00
2022-07-31T09:24:52.518Z,100903.00
2022-07-31T09:27:21.252Z,100896.00
2022-07-31T09:29:50.035Z,100896.00
2022-07-31T09:32:21.847Z,100898.00
2022-07-31T09:34:50.425Z,100889.00
2022-07-31T09:37:21.419Z,100892.00
2022-07-31T09:39:55.190Z,100892.00
2022-07-31T09:42:39.745Z,100890.00
2022-07-31T09:45:22.316Z,100891.00
2022-07-31T09:48:04.790Z,100885.00
2022-07-31T09:50:34.756Z,100894.00
2022-07-31T09:53:03.198Z,100881.00
2022-07-31T09:55:31.328Z,100884.00
2022-07-31T09:58:01.355Z,100889.00
2022-07-31T10:00:30.164Z,100884.00
2022-07-31T10:03:01.796Z,100879.00
2022-07-31T10:05:31.473Z,100877.00
2022-07-31T10:08:01.716Z,100881.00
2022-07-31T10:10:31.210Z,100880.00
2022-07-31T10:13:07.621Z,100873.00
2022-07-31T10:15:39.645Z,100876.00
2022-07-31T10:18:10.258Z,100881.00
2022-07-31T10:20:42.997Z,100838.00
2022-07-31T10:23:17.168Z,100868.00
2022-07-31T10:25:53.719Z,100879.00
2022-07-31T10:28:22.985Z,100865.00
2022-07-31T10:30:51.870Z,100876.00
2022-07-31T10:33:43.084Z,100854.00
2022-07-31T10:36:20.754Z,100875.00
2022-07-31T10:38:59.745Z,100868.00
2022-07-31T10:41:47.131Z,100863.00
2022-07-31T10:44:24.061Z,100865.00
2022-07-31T10:46:52.229Z,100857.00
2022-07-31T10:49:39.313Z,100864.00
2022-07-31T10:52:08.256Z,100872.00
2022-07-31T10:54:45.109Z,100857.00
2022-07-31T10:57:23.631Z,100867.00
2022-07-31T10:59:51.793Z,100861.00
2022-07-31T11:02:31.254Z,100863.00
2022-07-31T11:05:14.164Z,100860.00
2022-07-31T11:07:45.859Z,100858.00
2022-07-31T11:10:18.197Z,100863.00
2022-07-31T11:12:47.008Z,100863.00
2022-07-31T11:15:24.849Z,100860.00
2022-07-31T11:18:16.600Z,100844.00
2022-07-31T11:20:46.838Z,100859.00
2022-07-31T11:23:17.569Z,100862.00
2022-07-31T11:25:47.496Z,100861.00
2022-07-31T11:28:21.461Z,100861.00
2022-07-31T11:30:52.374Z,100863.00
2022-07-31T11:33:31.682Z,100866.00
2022-07-31T11:36:14.319Z,100851.00
2022-07-31T11:38:47.557Z,100859.00
2022-07-31T11:41:16.619Z,100860.00
2022-07-31T11:43:46.287Z,100853.00
2022-07-31T11:46:24.849Z,100849.00
2022-07-31T11:48:53.495Z,100851.00
2022-07-31T11:51:24.551Z,100837.00
2022-07-31T11:53:57.426Z,100849.00
2022-07-31T11:56:28.351Z,100852.00
2022-07-31T11:58:58.927Z,100839.00
2022-07-31T12:01:29.297Z,100846.00
2022-07-31T12:04:07.506Z,100833.00
2022-07-31T12:06:39.285Z,100826.00
2022-07-31T12:09:07.658Z,100829.00
2022-07-31T12:11:56.048Z,100817.00
2022-07-31T12:14:32.844Z,100825.00
2022-07-31T12:17:02.533Z,100804.00
2022-07-31T12:19:38.617Z,100810.00
2022-07-31T12:22:17.424Z,100817.00
2022-07-31T12:24:47.404Z,100817.00
2022-07-31T12:27:17.334Z,100821.00
2022-07-31T12:29:45.925Z,100820.00
2022-07-31T12:32:25.204Z,100814.00
2022-07-31T12:35:03.734Z,100807.00
2022-07-31T12:37:44.764Z,100804.00
2022-07-31T12:40:25.077Z,100801.00
2022-07-31T12:42:53.456Z,100798.00
2022-07-31T12:45:37.785Z,100780.00
2022-07-31T12:48:07.254Z,100802.00
2022-07-31T12:50:35.666Z,100792.00
2022-07-31T12:53:05.909Z,100798.00
2022-07-31T12:55:35.162Z,100791.00
2022-07-31T12:58:03.253Z,100797.00
2022-07-31T13:00:31.344Z,100790.00
2022-07-31T13:02:59.436Z,100799.00
2022-07-31T13:05:27.619Z,100796.00
2022-07-31T13:07:56.128Z,100787.00
2022-07-31T13:10:32.286Z,100781.00
2022-07-31T13:13:00.696Z,100777.00
2022-07-31T13:15:30.471Z,100785.00
2022-07-31T13:18:01.786Z,100769.00
2022-07-31T13:20:30.992Z,100770.00
2022-07-31T13:23:00.112Z,100764.00
2022-07-31T13:25:31.532Z,100765.00
2022-07-31T13:28:00.070Z,100760.00
2022-07-31T13:30:28.859Z,100769.00
2022-07-31T13:32:56.907Z,100775.00
2022-07-31T13:35:28.509Z,100767.00
2022-07-31T13:37:57.991Z,100771.00
2022-07-31T13:40:40.428Z,100778.00
2022-07-31T13:43:10.069Z,100779.00
2022-07-31T13:45:38.521Z,100770.00
2022-07-31T13:48:09.736Z,100768.00
2022-07-31T13:50:39.501Z,100768.00
2022-07-31T13:53:07.691Z,100765.00
2022-07-31T13:55:36.185Z,100771.00
2022-07-31T13:58:04.978Z,100761.00
2022-07-31T14:00:35.483Z,100757.00
2022-07-31T14:03:03.507Z,100760.00
2022-07-31T14:05:40.165Z,100738.00
2022-07-31T14:08:33.333Z,100756.00
2022-07-31T14:10:57.249Z,100760.00
2022-07-31T14:13:25.804Z,100754.00
2022-07-31T14:15:55.329Z,100758.00
2022-07-31T14:18:23.768Z,100747.00
2022-07-31T14:20:52.149Z,100737.00
2022-07-31T14:23:20.271Z,100733.00
2022-07-31T14:25:54.466Z,100737.00
2022-07-31T14:28:22.562Z,100733.00
2022-07-31T14:30:50.607Z,100734.00
2022-07-31T14:33:20.123Z,100732.00
2022-07-31T14:35:54.566Z,100733.00
2022-07-31T14:38:27.457Z,100726.00
2022-07-31T14:40:56.296Z,100729.00
2022-07-31T14:43:24.443Z,100728.00
2022-07-31T14:45:52.571Z,100721.00
2022-07-31T14:48:22.035Z,100721.00
2022-07-31T14:50:50.244Z,100722.00
2022-07-31T14:53:18.242Z,100717.00
2022-07-31T14:55:46.436Z,100715.00
2022-07-31T14:58:14.533Z,100716.00
2022-07-31T15:00:42.722Z,100716.00
2022-07-31T15:03:10.871Z,100717.00
2022-07-31T15:06:40.847Z,100714.00
2022-07-31T15:08:30.107Z,100719.00
2022-07-31T15:10:58.143Z,100717.00
2022-07-31T15:13:26.441Z,100722.00
2022-07-31T15:15:54.616Z,100711.00
2022-07-31T15:18:25.676Z,100712.00
2022-07-31T15:20:55.444Z,100717.00
2022-07-31T15:23:23.779Z,100715.00
2022-07-31T15:25:51.960Z,100707.00
2022-07-31T15:28:20.176Z,100702.00
2022-07-31T15:30:48.271Z,100692.00
2022-07-31T15:33:16.348Z,100701.00
2022-07-31T15:35:44.383Z,100686.00
2022-07-31T15:38:13.863Z,100701.00
2022-07-31T15:40:42.045Z,100709.00
2022-07-31T15:43:10.147Z,100697.00
2022-07-31T15:45:38.244Z,100700.00
2022-07-31T15:48:10.130Z,100705.00
2022-07-31T15:50:39.244Z,100681.00
2022-07-31T15:53:07.483Z,100705.00
2022-07-31T15:55:37.062Z,100698.00
2022-07-31T15:58:05.129Z,100699.00
2022-07-31T16:00:33.443Z,100694.00
2022-07-31T16:03:01.781Z,100690.00
2022-07-31T16:05:37.144Z,100693.00
2022-07-31T16:08:32.668Z,100691.00
2022-07-31T16:10:58.933Z,100687.00
2022-07-31T16:13:27.079Z,100686.00
2022-07-31T16:15:55.504Z,100685.00
2022-07-31T16:18:23.598Z,100684.00
2022-07-31T16:20:51.777Z,100676.00
2022-07-31T16:23:19.931Z,100676.00
2022-07-31T16:25:48.250Z,100674.00
2022-07-31T16:28:17.669Z,100672.00
2022-07-31T16:30:46.656Z,100674.00
2022-07-31T16:33:15.039Z,100669.00
2022-07-31T16:35:43.258Z,100668.00
2022-07-31T16:38:11.404Z,100662.00
2022-07-31T16:40:39.580Z,100664.00
2022-07-31T16:43:47.375Z,100660.00
2022-07-31T16:45:58.751Z,100672.00
2022-07-31T16:48:26.818Z,100665.00
2022-07-31T16:50:55.263Z,100663.00
2022-07-31T16:54:12.754Z,100669.00
2022-07-31T16:56:13.022Z,100668.00
2022-07-31T16:58:41.691Z,100662.00
2022-07-31T17:01:58.749Z,100658.00
2022-07-31T17:04:03.173Z,100666.00
2022-07-31T17:06:37.358Z,100655.00
2022-07-31T17:09:15.828Z,100666.00
2022-07-31T17:11:48.055Z,100657.00
2022-07-31T17:14:17.196Z,100659.00
2022-07-31T17:16:49.169Z,100661.00
2022-07-31T17:19:41.326Z,100648.00
2022-07-31T17:22:08.259Z,100653.00
2022-07-31T17:24:40.459Z,100655.00
2022-07-31T17:27:09.911Z,100651.00
2022-07-31T17:29:39.538Z,100648.00
2022-07-31T17:32:11.179Z,100649.00
2022-07-31T17:34:39.860Z,100652.00
2022-07-31T17:37:08.605Z,100648.00
2022-07-31T17:39:37.136Z,100648.00
2022-07-31T17:42:06.089Z,100640.00
2022-07-31T17:44:37.385Z,100640.00
2022-07-31T17:47:06.477Z,100633.00
2022-07-31T17:49:36.462Z,100642.00
2022-07-31T17:52:05.624Z,100640.00
2022-07-31T17:54:34.029Z,100644.00
2022-07-31T17:57:02.677Z,100632.00
2022-07-31T17:59:30.874Z,100645.00
2022-07-31T18:02:00.763Z,100642.00
2022-07-31T18:04:30.132Z,100640.00
2022-07-31T18:07:01.181Z,100641.00
2022-07-31T18:09:30.099Z,100628.00
2022-07-31T18:11:59.140Z,100639.00
2022-07-31T18:14:27.646Z,100639.00
2022-07-31T18:16:55.963Z,100635.00
2022-07-31T18:19:24.225Z,100637.00
2022-07-31T18:21:53.359Z,100631.00
2022-07-31T18:24:23.480Z,100634.00
2022-07-31T18:26:53.691Z,100636.00
2022-07-31T18:29:22.070Z,100634.00
2022-07-31T18:31:50.548Z,100633.00
2022-07-31T18:34:18.660Z,100634.00
2022-07-31T18:36:52.906Z,100640.00
2022-07-31T18:39:24.590Z,100634.00
2022-07-31T18:41:54.360Z,100633.00
2022-07-31T18:44:22.841Z,100632.00
2022-07-31T18:46:51.116Z,100625.00
2022-07-31T18:50:59.378Z,100621.00
2022-07-31T18:52:08.961Z,100632.00
2022-07-31T18:54:39.279Z,100635.00
2022-07-31T18:57:08.062Z,100632.00
2022-07-31T18:59:37.423Z,100634.00
2022-07-31T19:02:07.828Z,100637.00
2022-07-31T19:04:39.975Z,100633.00
2022-07-31T19:07:08.663Z,100639.00
2022-07-31T19:09:38.339Z,100646.00
2022-07-31T19:12:08.603Z,100643.00
2022-07-31T19:14:37.394Z,100648.00
2022-07-31T19:17:05.805Z,100652.00
2022-07-31T19:19:54.577Z,100646.00
2022-07-31T19:22:25.970Z,100646.00
2022-07-31T19:24:55.719Z,100643.00
2022-07-31T19:27:34.165Z,100647.00
2022-07-31T19:30:13.725Z,100647.00
2022-07-31T19:32:42.050Z,100647.00
2022-07-31T19:35:11.249Z,100646.00
2022-07-31T19:37:39.610Z,100647.00
2022-07-31T19:40:11.415Z,100645.00
2022-07-31T19:42:42.193Z,100649.00
2022-07-31T19:45:10.928Z,100645.00
2022-07-31T19:47:39.203Z,100637.00
2022-07-31T19:50:08.894Z,100633.00
2022-07-31T19:52:36.894Z,100633.00
2022-07-31T19:55:05.812Z,100627.00
2022-07-31T19:57:35.464Z,100632.00
2022-07-31T20:00:03.913Z,100626.00
2022-07-31T20:02:31.967Z,100635.00
2022-07-31T20:05:00.128Z,100632.00
2022-07-31T20:07:32.808Z,100622.00
2022-07-31T20:10:03.995Z,100625.00
2022-07-31T20:12:32.030Z,100632.00
2022-07-31T20:15:01.764Z,100626.00
2022-07-31T20:17:30.191Z,100623.00
2022-07-31T20:20:11.812Z,100618.00
2022-07-31T20:22:43.977Z,100621.00
2022-07-31T20:25:19.803Z,100616.00
2022-07-31T20:27:49.374Z,100612.00
2022-07-31T20:30:21.782Z,100613.00
2022-07-31T20:32:50.379Z,100618.00
2022-07-31T20:35:45.561Z,100619.00
2022-07-31T20:38:08.604Z,100620.00
2022-07-31T20:40:52.792Z,100613.00
2022-07-31T20:43:22.771Z,100609.00
2022-07-31T20:45:53.167Z,100614.00
2022-07-31T20:48:24.356Z,100603.00
2022-07-31T20:50:53.272Z,100610.00
2022-07-31T20:53:22.919Z,100610.00
2022-07-31T20:55:51.121Z,100600.00
2022-07-31T20:58:20.769Z,100608.00
